Ossian, Indiana
Current Conditions -  °F | °C
As of 10:54 AM on Saturday 22 Nov 2014 (Local Time) from KFWA Reporting Station
Overcast Overcast  
Wind Chill: 35°   Ceiling: 4200
Heat Index: 42°   Visibility: 8mi
Dew Point: 38°   Wind: 15mph
Humidity: 85%   Direction: 220°SW
Pressure: 30.11"   Gusts: NA
Location:  40.88°N, 85.17°W
Report Text: KFWA 221554Z 22013KT 8SM BKN042 OVC070 06/03 A3011 RMK AO2 RAB10E40 SLP206 P0000 T00560033
Loading
Personal Weather Stations






























Interactive Weather Map New forecast layout! Learn more

10-Day Weather Forecast

Advertisements
Track Severe Weather on mobile